Time;durP1;ratioP1;P1;durP2;ratioP2;P2;SDS_P1;SDS_P2;PMS_P1;PMS_P2;Temp;Humidity;BMP_temperature;BMP_pressure;BME280_temperature;BME280_humidity;BME280_pressure;Samples;Min_cycle;Max_cycle;Signal;HPM_P1;HPM_P2
2022/05/31 00:02:13;;;;;;;3.17;1.70;;;9.20;99.90;;;;;;6278799;22;20012;-81
2022/05/31 00:04:39;;;;;;;3.92;1.90;;;9.10;99.90;;;;;;6278744;22;20008;-81
2022/05/31 00:07:05;;;;;;;1.98;1.70;;;9.10;99.90;;;;;;6279259;22;20023;-81
2022/05/31 00:09:31;;;;;;;4.38;2.20;;;9.10;99.90;;;;;;6277777;22;20019;-81
2022/05/31 00:11:57;;;;;;;2.10;1.75;;;9.10;99.90;;;;;;6279718;22;20012;-81
2022/05/31 00:14:24;;;;;;;3.97;2.20;;;9.00;99.90;;;;;;6278652;22;20078;-81
2022/05/31 00:16:50;;;;;;;2.70;2.20;;;9.00;99.90;;;;;;6278775;22;20062;-81
2022/05/31 00:19:17;;;;;;;5.47;2.45;;;8.90;99.90;;;;;;6277817;22;20007;-81
2022/05/31 00:22:07;;;;;;;6.10;2.08;;;8.90;99.90;;;;;;6278442;22;20008;-81
2022/05/31 00:24:33;;;;;;;3.38;2.15;;;8.80;99.90;;;;;;6262497;22;20008;-81
2022/05/31 00:26:59;;;;;;;3.30;2.25;;;8.80;99.90;;;;;;6249947;22;20054;-81
2022/05/31 00:29:24;;;;;;;4.78;2.28;;;8.80;99.90;;;;;;6285152;22;20067;-81
2022/05/31 00:31:51;;;;;;;3.47;2.40;;;8.70;99.90;;;;;;6302426;22;20012;-80
2022/05/31 00:34:18;;;;;;;4.43;2.65;;;8.70;99.90;;;;;;6297994;22;20043;-81
2022/05/31 00:36:46;;;;;;;4.47;2.13;;;8.70;99.90;;;;;;6247198;22;20437;-81
2022/05/31 00:39:13;;;;;;;4.38;2.47;;;8.70;99.90;;;;;;6273399;22;20503;-81
2022/05/31 00:41:39;;;;;;;4.80;2.63;;;8.60;99.90;;;;;;6272669;22;20023;-81
2022/05/31 00:44:19;;;;;;;10.68;2.17;;;8.70;99.90;;;;;;6272868;22;20008;-81
2022/05/31 00:46:47;;;;;;;4.28;2.17;;;8.70;99.90;;;;;;6274956;22;20341;-81
2022/05/31 00:49:28;;;;;;;3.75;2.35;;;8.70;99.90;;;;;;6274975;22;20066;-80
2022/05/31 00:51:56;;;;;;;5.20;2.00;;;8.70;99.90;;;;;;6273548;22;20325;-81
2022/05/31 00:54:25;;;;;;;4.30;2.50;;;8.60;99.90;;;;;;6273505;22;20011;-81
2022/05/31 00:56:53;;;;;;;3.38;1.88;;;8.60;99.90;;;;;;6273241;22;20306;-82
2022/05/31 00:59:26;;;;;;;3.97;2.05;;;8.50;99.90;;;;;;6275029;22;20337;-81
2022/05/31 01:01:56;;;;;;;2.95;1.77;;;8.50;99.90;;;;;;6274616;22;20354;-81
2022/05/31 01:04:30;;;;;;;2.67;2.10;;;8.50;99.90;;;;;;6273388;22;20012;-81
2022/05/31 01:06:56;;;;;;;2.63;1.95;;;8.40;99.90;;;;;;6275549;22;20022;-81
2022/05/31 01:09:22;;;;;;;4.78;2.17;;;8.40;99.90;;;;;;6273596;22;20082;-80
2022/05/31 01:11:47;;;;;;;4.22;2.35;;;8.40;99.90;;;;;;6274880;22;20318;-81
2022/05/31 01:14:14;;;;;;;4.15;2.45;;;8.40;99.90;;;;;;6275521;22;20012;-81
2022/05/31 01:17:00;;;;;;;4.20;2.58;;;8.40;99.90;;;;;;6275096;22;20012;-81
2022/05/31 01:22:11;;;;;;;3.70;2.42;;;8.30;99.90;;;;;;6273520;22;20030;-81
2022/05/31 01:25:21;;;;;;;3.05;2.25;;;8.30;99.90;;;;;;6275398;22;20389;-81
2022/05/31 01:28:16;;;;;;;3.28;2.20;;;8.30;99.90;;;;;;6204367;22;20016;-81
2022/05/31 01:31:10;;;;;;;2.95;2.13;;;8.20;99.90;;;;;;6248468;22;20061;-81
2022/05/31 01:33:45;;;;;;;2.25;1.80;;;8.20;99.90;;;;;;6248286;22;20007;-81
2022/05/31 01:36:18;;;;;;;3.15;2.20;;;8.20;99.90;;;;;;6248608;22;20417;-81
2022/05/31 01:38:56;;;;;;;4.47;2.30;;;8.20;99.90;;;;;;6223785;22;20437;-81
2022/05/31 01:41:28;;;;;;;4.22;2.08;;;8.10;99.90;;;;;;6274781;22;20045;-81
2022/05/31 01:43:58;;;;;;;4.47;1.80;;;8.20;99.90;;;;;;6248862;22;20011;-81
2022/05/31 01:46:27;;;;;;;5.07;2.30;;;8.10;99.90;;;;;;6249551;22;20012;-81
2022/05/31 01:48:53;;;;;;;2.58;2.03;;;8.10;99.90;;;;;;6249135;22;20043;-81
2022/05/31 01:51:20;;;;;;;4.00;2.50;;;8.20;99.90;;;;;;6248509;22;20020;-80
2022/05/31 01:53:46;;;;;;;3.67;2.40;;;8.20;99.90;;;;;;6224388;22;20341;-81
2022/05/31 01:56:12;;;;;;;3.70;1.85;;;8.20;99.90;;;;;;6276329;22;20008;-81
2022/05/31 01:58:41;;;;;;;3.03;2.13;;;8.20;99.90;;;;;;6249673;22;20058;-80
2022/05/31 02:01:08;;;;;;;2.50;2.22;;;8.20;99.90;;;;;;6276290;22;20007;-81
2022/05/31 02:03:34;;;;;;;3.47;2.35;;;8.30;99.90;;;;;;6277087;22;20473;-81
2022/05/31 02:05:59;;;;;;;3.97;2.22;;;8.20;99.90;;;;;;6275744;22;20019;-81
2022/05/31 02:08:29;;;;;;;3.47;2.67;;;8.30;99.90;;;;;;6275428;22;20049;-80
2022/05/31 02:10:56;;;;;;;3.78;2.60;;;8.30;99.90;;;;;;6249614;22;20443;-81
2022/05/31 02:13:22;;;;;;;3.60;2.40;;;8.40;99.90;;;;;;6223704;22;20016;-81
2022/05/31 02:15:48;;;;;;;4.45;2.53;;;8.40;99.90;;;;;;6224148;22;20015;-80
2022/05/31 02:18:14;;;;;;;5.25;2.45;;;8.40;99.90;;;;;;6249855;22;20106;-81
2022/05/31 02:20:40;;;;;;;4.63;2.40;;;8.50;99.90;;;;;;6222391;22;20004;-81
2022/05/31 02:23:06;;;;;;;4.43;1.92;;;8.60;99.90;;;;;;6222375;22;20466;-82
2022/05/31 02:25:32;;;;;;;3.42;2.50;;;8.60;99.90;;;;;;6222404;22;20019;-81
2022/05/31 02:27:58;;;;;;;4.00;2.58;;;8.60;99.90;;;;;;6223172;22;20054;-81
2022/05/31 02:30:23;;;;;;;5.45;3.25;;;8.60;99.90;;;;;;6248011;22;20012;-80
2022/05/31 02:32:49;;;;;;;4.15;3.00;;;8.70;99.90;;;;;;6276148;22;20018;-81
2022/05/31 02:35:15;;;;;;;3.92;2.40;;;8.70;99.90;;;;;;6248288;22;20087;-81
2022/05/31 02:37:41;;;;;;;3.80;2.50;;;8.70;99.90;;;;;;6277472;22;20397;-81
2022/05/31 02:40:07;;;;;;;7.18;2.65;;;8.70;99.90;;;;;;6277176;22;20007;-81
2022/05/31 02:42:36;;;;;;;3.92;2.70;;;8.70;99.90;;;;;;6250268;22;20399;-81
2022/05/31 02:45:05;;;;;;;3.95;2.60;;;8.80;99.90;;;;;;6224291;22;20008;-81
2022/05/31 02:47:30;;;;;;;4.20;2.47;;;8.80;99.90;;;;;;6250320;22;20064;-81
2022/05/31 02:49:56;;;;;;;4.25;2.55;;;8.90;99.90;;;;;;6249684;22;20035;-80
2022/05/31 02:52:22;;;;;;;5.00;3.00;;;8.80;99.90;;;;;;6277533;22;20218;-81
2022/05/31 02:54:48;;;;;;;3.83;2.67;;;8.90;99.90;;;;;;6250841;22;20344;-81
2022/05/31 02:57:13;;;;;;;3.72;2.53;;;8.90;99.90;;;;;;6250698;22;20015;-81
2022/05/31 02:59:39;;;;;;;3.70;3.17;;;8.90;99.90;;;;;;6224186;22;20012;-81
2022/05/31 03:02:04;;;;;;;5.85;3.00;;;8.90;99.90;;;;;;6249379;22;20016;-80
2022/05/31 03:04:30;;;;;;;3.42;2.80;;;8.90;99.90;;;;;;6276540;22;20111;-81
2022/05/31 03:07:01;;;;;;;3.85;3.00;;;8.90;99.90;;;;;;6248649;22;20085;-81
2022/05/31 03:09:28;;;;;;;3.70;2.83;;;8.90;99.90;;;;;;6277966;22;20020;-81
2022/05/31 03:12:02;;;;;;;4.53;3.28;;;8.90;99.90;;;;;;6277740;22;20011;-81
2022/05/31 03:15:01;;;;;;;5.20;2.83;;;8.90;99.90;;;;;;6277601;22;20019;-81
2022/05/31 03:17:40;;;;;;;3.30;2.90;;;8.90;99.90;;;;;;6242466;22;20026;-81
2022/05/31 03:20:12;;;;;;;5.57;3.40;;;8.90;99.90;;;;;;6277273;22;20019;-81
2022/05/31 03:22:43;;;;;;;4.43;3.10;;;8.90;99.90;;;;;;6277173;22;20337;-82
2022/05/31 03:25:18;;;;;;;4.67;3.10;;;9.00;99.90;;;;;;6277098;22;20090;-81
2022/05/31 03:27:44;;;;;;;4.15;2.90;;;8.90;99.90;;;;;;6250969;22;20238;-81
2022/05/31 03:30:10;;;;;;;4.35;2.92;;;9.00;99.90;;;;;;6277292;22;20012;-81
2022/05/31 03:32:36;;;;;;;5.25;3.47;;;9.00;99.90;;;;;;6277150;22;20012;-81
2022/05/31 03:35:03;;;;;;;5.43;3.10;;;9.00;99.90;;;;;;6277267;22;20043;-81
2022/05/31 03:37:28;;;;;;;4.55;3.28;;;9.00;99.90;;;;;;6249395;22;20038;-81
2022/05/31 03:39:54;;;;;;;4.93;3.28;;;9.00;99.90;;;;;;6249955;22;20424;-81
2022/05/31 03:42:19;;;;;;;4.93;3.25;;;9.00;99.90;;;;;;6250518;22;20348;-81
2022/05/31 03:44:45;;;;;;;4.35;3.25;;;9.10;99.90;;;;;;6224666;22;20011;-81
2022/05/31 03:47:10;;;;;;;4.47;2.83;;;9.10;99.90;;;;;;6276655;22;20082;-81
2022/05/31 03:49:36;;;;;;;4.45;3.03;;;9.10;99.90;;;;;;6251036;22;20023;-82
2022/05/31 03:52:02;;;;;;;5.07;3.17;;;9.10;99.90;;;;;;6249515;22;20064;-82
2022/05/31 03:54:28;;;;;;;6.38;3.20;;;9.20;99.90;;;;;;6276109;22;20313;-81
2022/05/31 03:56:54;;;;;;;5.78;3.25;;;9.20;99.90;;;;;;6249899;22;20020;-80
2022/05/31 03:59:19;;;;;;;6.30;2.88;;;9.30;99.90;;;;;;6248492;22;20015;-81
2022/05/31 04:01:45;;;;;;;8.07;3.22;;;9.30;99.90;;;;;;6275593;22;20087;-81
2022/05/31 04:04:11;;;;;;;5.28;2.85;;;9.30;99.90;;;;;;6275455;22;20453;-81
2022/05/31 04:06:36;;;;;;;5.13;3.25;;;9.40;99.90;;;;;;6248248;22;20016;-81
2022/05/31 04:09:03;;;;;;;6.80;3.17;;;9.50;99.90;;;;;;6275236;22;20098;-81
2022/05/31 04:11:29;;;;;;;3.75;3.30;;;9.50;99.90;;;;;;6247608;22;20019;-81
2022/05/31 04:13:54;;;;;;;6.03;3.40;;;9.50;99.90;;;;;;6275166;22;20016;-83
2022/05/31 04:16:21;;;;;;;4.85;3.22;;;9.60;99.90;;;;;;6274662;22;20466;-81
2022/05/31 04:18:46;;;;;;;5.63;2.97;;;9.60;99.90;;;;;;6247961;22;20012;-79
2022/05/31 04:21:17;;;;;;;3.65;2.90;;;9.60;99.90;;;;;;6274871;22;20030;-79
2022/05/31 04:23:58;;;;;;;3.90;2.97;;;9.60;99.90;;;;;;6248170;22;20041;-79
2022/05/31 04:26:31;;;;;;;4.47;3.03;;;9.70;99.90;;;;;;6247724;22;20444;-80
2022/05/31 04:28:56;;;;;;;;;;;9.70;99.90;;;;;;6248228;22;20039;-79
2022/05/31 04:31:22;;;;;;;5.43;2.80;;;9.80;99.90;;;;;;6275144;22;19911;-79
2022/05/31 04:33:48;;;;;;;4.80;3.40;;;9.80;99.90;;;;;;6247895;22;20054;-80
2022/05/31 04:36:16;;;;;;;16.13;8.70;;;9.80;99.90;;;;;;6247592;22;20361;-80
2022/05/31 04:38:42;;;;;;;17.48;8.77;;;9.80;99.90;;;;;;6247640;22;20012;-79
2022/05/31 04:41:18;;;;;;;7.07;4.20;;;9.90;99.90;;;;;;6222038;22;20008;-79
2022/05/31 04:43:44;;;;;;;6.75;3.38;;;9.90;99.90;;;;;;6247869;22;20004;-79
2022/05/31 04:46:15;;;;;;;5.90;3.58;;;10.00;99.90;;;;;;6247613;22;20008;-79
2022/05/31 04:48:41;;;;;;;7.07;4.20;;;10.10;99.90;;;;;;6273105;22;20027;-80
2022/05/31 04:51:06;;;;;;;5.00;3.30;;;10.10;99.90;;;;;;6247237;22;20050;-79
2022/05/31 04:53:32;;;;;;;4.43;3.13;;;10.20;99.90;;;;;;6247486;22;20072;-80
2022/05/31 04:56:03;;;;;;;3.65;3.08;;;10.20;99.90;;;;;;6247402;22;20011;-80
2022/05/31 04:58:28;;;;;;;4.63;2.40;;;10.30;99.90;;;;;;6221536;22;20349;-79
2022/05/31 05:00:54;;;;;;;11.10;5.93;;;10.30;99.90;;;;;;6247258;22;20008;-80
2022/05/31 05:03:20;;;;;;;7.05;4.60;;;10.40;99.90;;;;;;6247508;22;20054;-80
2022/05/31 05:05:45;;;;;;;3.55;2.58;;;10.50;99.90;;;;;;6247609;22;20325;-79
2022/05/31 05:08:11;;;;;;;3.85;2.50;;;10.50;99.90;;;;;;6221587;22;20357;-80
2022/05/31 05:10:37;;;;;;;3.45;2.65;;;10.50;99.90;;;;;;6248050;22;20015;-80
2022/05/31 05:13:03;;;;;;;7.53;3.22;;;10.60;99.90;;;;;;6247235;22;20007;-80
2022/05/31 05:15:29;;;;;;;7.55;4.30;;;10.70;99.90;;;;;;6247229;22;20023;-80
2022/05/31 05:17:54;;;;;;;3.22;2.47;;;10.70;99.90;;;;;;6247562;22;20012;-80
2022/05/31 05:20:22;;;;;;;8.00;3.90;;;10.70;99.90;;;;;;6247694;22;20012;-80
2022/05/31 05:22:47;;;;;;;8.88;4.60;;;10.80;99.90;;;;;;6247372;22;20453;-80
2022/05/31 05:25:13;;;;;;;14.73;7.97;;;10.80;99.90;;;;;;6247337;22;20030;-81
2022/05/31 05:27:39;;;;;;;5.18;3.85;;;10.90;99.90;;;;;;6247673;22;20395;-79
2022/05/31 05:32:49;;;;;;;3.83;2.30;;;11.00;99.90;;;;;;6269805;22;20022;-79
2022/05/31 05:35:14;;;;;;;2.58;2.20;;;11.00;99.90;;;;;;6274090;22;20086;-79
2022/05/31 05:37:40;;;;;;;4.20;2.28;;;11.10;99.90;;;;;;6273958;22;20019;-79
2022/05/31 05:40:06;;;;;;;4.82;2.47;;;11.10;99.90;;;;;;6247635;22;20018;-79
2022/05/31 05:42:31;;;;;;;5.38;2.45;;;11.10;99.90;;;;;;6248649;22;20023;-79
2022/05/31 05:44:59;;;;;;;4.03;2.50;;;11.20;99.90;;;;;;6273258;22;20349;-79
2022/05/31 05:47:25;;;;;;;2.72;2.25;;;11.20;99.90;;;;;;6274242;22;20449;-79
2022/05/31 05:49:52;;;;;;;4.45;2.63;;;11.30;99.90;;;;;;6272298;22;20061;-81
2022/05/31 05:52:17;;;;;;;6.05;2.45;;;11.40;99.90;;;;;;6247193;22;20031;-81
2022/05/31 05:54:43;;;;;;;3.70;2.63;;;11.40;99.90;;;;;;6247286;22;20463;-81
2022/05/31 05:57:09;;;;;;;4.03;2.50;;;11.40;99.90;;;;;;6247464;22;20012;-81
2022/05/31 05:59:34;;;;;;;6.50;2.85;;;11.60;99.90;;;;;;6247084;22;20012;-81
2022/05/31 06:02:08;;;;;;;5.47;2.88;;;11.60;99.90;;;;;;6247741;22;20047;-81
2022/05/31 06:05:14;;;;;;;9.02;2.80;;;11.60;99.90;;;;;;6247440;22;20070;-81
2022/05/31 06:07:55;;;;;;;5.20;2.40;;;11.80;99.90;;;;;;6267049;22;20027;-81
2022/05/31 06:10:25;;;;;;;5.20;2.60;;;11.80;99.90;;;;;;6247164;22;20015;-82
2022/05/31 06:12:57;;;;;;;6.18;2.72;;;11.90;99.90;;;;;;6249198;22;20038;-81
2022/05/31 06:15:28;;;;;;;7.00;2.60;;;12.10;99.90;;;;;;6249622;22;20019;-82
2022/05/31 06:17:56;;;;;;;3.37;2.07;;;12.20;99.90;;;;;;6249139;22;20498;-82
2022/05/31 06:20:22;;;;;;;3.40;2.17;;;12.30;99.90;;;;;;6275671;22;20456;-82
2022/05/31 06:22:48;;;;;;;3.80;2.47;;;12.50;99.90;;;;;;6274907;22;20019;-82
2022/05/31 06:25:17;;;;;;;6.03;2.70;;;12.60;99.90;;;;;;6249430;22;20003;-82
2022/05/31 06:27:42;;;;;;;5.63;2.00;;;12.80;99.90;;;;;;6274826;22;20012;-82
2022/05/31 06:30:09;;;;;;;3.60;2.42;;;13.00;99.90;;;;;;6248870;22;20008;-82
2022/05/31 06:32:34;;;;;;;3.55;2.20;;;13.30;99.90;;;;;;6274850;22;20118;-82
2022/05/31 06:35:00;;;;;;;3.95;2.22;;;13.80;99.90;;;;;;6274658;22;20039;-82
2022/05/31 06:37:28;;;;;;;8.13;3.03;;;14.60;99.90;;;;;;6274411;22;20337;-82
2022/05/31 06:39:54;;;;;;;8.30;2.40;;;15.60;99.90;;;;;;6248876;22;20022;-82
2022/05/31 06:42:20;;;;;;;4.28;2.22;;;16.50;99.90;;;;;;6274861;22;20019;-82
2022/05/31 06:44:45;;;;;;;4.50;2.17;;;17.20;99.90;;;;;;6274360;22;20083;-82
2022/05/31 06:47:11;;;;;;;3.38;2.63;;;17.60;99.90;;;;;;6248875;22;20024;-82
2022/05/31 06:49:38;;;;;;;8.18;2.33;;;17.80;99.90;;;;;;6273842;22;20008;-82
2022/05/31 06:57:37;;;;;;;2.45;2.13;;;17.90;99.90;;;;;;6274204;22;20023;-83
2022/05/31 07:00:06;;;;;;;5.35;2.10;;;17.80;99.90;;;;;;6248550;22;20368;-82
2022/05/31 07:02:32;;;;;;;3.00;1.80;;;17.80;99.90;;;;;;6248864;22;20012;-83
2022/05/31 07:04:58;;;;;;;2.58;1.75;;;18.10;99.90;;;;;;6274021;22;20327;-83
2022/05/31 07:07:24;;;;;;;2.55;1.95;;;18.40;99.90;;;;;;6249187;22;20022;-83
2022/05/31 07:09:50;;;;;;;7.55;2.17;;;18.70;99.90;;;;;;6284729;22;20111;-81
2022/05/31 07:12:15;;;;;;;3.25;1.95;;;18.80;99.90;;;;;;6285878;22;20012;-81
2022/05/31 07:14:41;;;;;;;3.75;2.20;;;19.00;99.90;;;;;;6283679;22;20066;-81
2022/05/31 07:17:09;;;;;;;2.97;2.13;;;19.30;99.90;;;;;;6255966;22;20043;-81
2022/05/31 07:19:34;;;;;;;5.88;2.15;;;19.60;99.90;;;;;;6282752;22;20042;-81
2022/05/31 07:22:00;;;;;;;4.97;1.98;;;19.90;99.90;;;;;;6262271;22;20012;-82
2022/05/31 07:24:27;;;;;;;5.20;1.83;;;20.10;99.90;;;;;;6274888;22;20071;-82
2022/05/31 07:26:53;;;;;;;6.00;1.98;;;20.20;99.90;;;;;;6297461;22;20559;-83
2022/05/31 07:29:18;;;;;;;4.60;2.08;;;20.50;99.90;;;;;;6248126;22;20050;-82
2022/05/31 07:31:44;;;;;;;3.03;1.60;;;20.70;99.90;;;;;;6247786;22;20019;-83
2022/05/31 07:34:15;;;;;;;3.35;1.67;;;20.80;99.90;;;;;;6248594;22;20512;-83
2022/05/31 07:36:41;;;;;;;3.83;2.00;;;20.90;99.90;;;;;;6273558;22;20017;-83
2022/05/31 07:39:13;;;;;;;9.63;2.08;;;21.00;99.90;;;;;;6273425;22;20019;-83
2022/05/31 07:41:39;;;;;;;4.38;2.10;;;21.20;99.90;;;;;;6247831;22;20011;-82
2022/05/31 07:44:05;;;;;;;4.03;1.60;;;21.30;99.90;;;;;;6248172;22;20008;-82
2022/05/31 07:46:31;;;;;;;4.00;2.20;;;21.40;99.90;;;;;;6273696;22;20091;-82
2022/05/31 07:48:58;;;;;;;5.63;2.78;;;21.60;99.40;;;;;;6273582;22;20050;-82
2022/05/31 07:51:25;;;;;;;4.10;2.03;;;21.60;98.00;;;;;;6248604;22;20011;-83
2022/05/31 07:53:51;;;;;;;5.93;2.72;;;21.60;96.60;;;;;;6273126;22;20023;-83
2022/05/31 07:56:17;;;;;;;7.07;2.70;;;21.70;95.80;;;;;;6278223;22;20012;-82
2022/05/31 07:58:44;;;;;;;8.07;2.70;;;21.60;96.80;;;;;;6252594;22;20008;-82
2022/05/31 08:01:13;;;;;;;4.93;2.53;;;21.50;95.20;;;;;;6274813;22;20027;-83
2022/05/31 08:03:39;;;;;;;3.67;2.85;;;21.60;94.80;;;;;;6249357;22;20016;-82
2022/05/31 08:06:11;;;;;;;6.28;2.90;;;21.60;98.10;;;;;;6248505;22;20012;-82
2022/05/31 08:08:37;;;;;;;6.15;2.65;;;21.70;95.80;;;;;;6274718;22;20065;-82
2022/05/31 08:11:15;;;;;;;4.28;2.60;;;21.70;93.70;;;;;;6277812;22;20106;-81
2022/05/31 08:13:42;;;;;;;5.22;3.00;;;21.70;84.80;;;;;;6277734;22;20019;-82
2022/05/31 08:16:12;;;;;;;3.78;2.55;;;21.70;92.70;;;;;;6278902;22;20312;-82
2022/05/31 08:18:40;;;;;;;4.03;2.72;;;21.70;82.60;;;;;;6254913;22;20393;-82
2022/05/31 08:24:34;;;;;;;4.40;2.35;;;21.90;71.40;;;;;;6275363;22;20102;-82
2022/05/31 08:27:13;;;;;;;4.68;2.70;;;22.00;87.70;;;;;;6273697;22;20014;-82
2022/05/31 08:29:57;;;;;;;6.57;2.35;;;22.00;85.10;;;;;;6279218;22;20080;-82
2022/05/31 08:32:23;;;;;;;4.75;2.80;;;22.00;78.50;;;;;;6250570;22;20016;-81
2022/05/31 08:34:59;;;;;;;6.80;2.67;;;22.00;78.00;;;;;;6252963;22;20015;-82
2022/05/31 08:38:21;;;;;;;;;;;;;;;;;;;;;
2022/05/31 08:40:50;;;;;;;6.82;2.97;;;22.10;65.30;;;;;;6257111;22;20452;-82
2022/05/31 08:43:45;;;;;;;5.32;3.20;;;22.00;72.60;;;;;;6247289;22;20043;-82
2022/05/31 08:46:50;;;;;;;5.65;2.50;;;22.20;58.90;;;;;;6243837;23;20095;-82
2022/05/31 08:49:16;;;;;;;6.95;2.53;;;22.10;62.40;;;;;;6219218;23;20081;-82
2022/05/31 08:52:25;;;;;;;6.18;2.80;;;21.80;69.30;;;;;;6246355;23;20372;-83
2022/05/31 08:58:55;;;;;;;;;;;21.00;57.70;;;;;;6188084;23;20112;-82
2022/05/31 09:01:37;;;;;;;5.82;3.95;;;20.80;58.10;;;;;;6160917;23;19951;-82
2022/05/31 09:04:55;;;;;;;5.20;3.40;;;20.50;62.00;;;;;;6134472;23;20369;-82
2022/05/31 09:08:09;;;;;;;7.50;3.90;;;20.30;60.40;;;;;;6099792;23;20075;-82
2022/05/31 09:11:07;;;;;;;7.53;3.60;;;20.10;60.00;;;;;;6060220;23;20061;-82
2022/05/31 09:17:01;;;;;;;10.30;3.78;;;19.70;69.80;;;;;;6213199;22;20523;-81
2022/05/31 09:19:40;;;;;;;10.00;4.30;;;19.90;64.00;;;;;;6223463;23;20026;-82
2022/05/31 09:22:07;;;;;;;6.53;3.67;;;20.00;58.70;;;;;;6222538;23;20456;-81
2022/05/31 09:24:40;;;;;;;4.53;2.92;;;20.00;63.40;;;;;;6223090;23;20062;-82
2022/05/31 09:27:25;;;;;;;3.97;3.08;;;19.90;59.00;;;;;;6223393;23;20327;-82
2022/05/31 09:30:09;;;;;;;6.40;3.60;;;20.10;56.90;;;;;;6221642;23;20046;-82
2022/05/31 09:33:09;;;;;;;6.65;3.50;;;20.10;56.20;;;;;;6221339;23;20508;-82
2022/05/31 09:36:09;;;;;;;7.03;3.22;;;20.10;61.10;;;;;;6219008;23;20358;-81
2022/05/31 09:38:59;;;;;;;6.60;3.00;;;19.70;61.70;;;;;;6223159;23;20023;-82
2022/05/31 09:44:47;;;;;;;7.30;3.05;;;19.40;58.20;;;;;;6244028;23;20020;-82
2022/05/31 09:47:30;;;;;;;8.02;3.35;;;19.30;63.20;;;;;;6219693;23;20027;-82
2022/05/31 09:49:58;;;;;;;7.22;3.50;;;19.00;63.40;;;;;;6243362;23;20016;-82
2022/05/31 09:52:42;;;;;;;4.43;3.63;;;19.00;65.90;;;;;;6218195;23;20109;-82
2022/05/31 09:58:08;;;;;;;10.68;4.10;;;18.80;72.90;;;;;;6246101;23;20064;-81
2022/05/31 10:00:36;;;;;;;6.45;3.75;;;18.70;73.50;;;;;;6219806;23;20064;-82
2022/05/31 10:03:11;;;;;;;7.18;3.88;;;18.60;73.90;;;;;;6218724;23;20044;-81
2022/05/31 10:05:45;;;;;;;6.63;3.72;;;18.60;72.50;;;;;;6247609;23;20066;-82
2022/05/31 10:08:33;;;;;;;7.53;4.22;;;18.60;71.50;;;;;;6220111;23;20402;-81
2022/05/31 10:11:14;;;;;;;6.95;3.85;;;18.60;70.00;;;;;;6218123;23;20016;-82
2022/05/31 10:14:09;;;;;;;9.75;4.57;;;18.50;68.20;;;;;;6219784;23;20357;-82
2022/05/31 10:16:54;;;;;;;6.93;3.88;;;18.40;74.50;;;;;;6221603;23;20020;-82
2022/05/31 10:19:24;;;;;;;8.30;4.07;;;18.20;75.20;;;;;;6218811;23;20453;-82
2022/05/31 10:21:50;;;;;;;7.25;4.43;;;18.00;76.20;;;;;;6219002;23;20008;-82
2022/05/31 10:24:17;;;;;;;4.55;3.47;;;17.90;79.40;;;;;;6220688;23;20044;-82
2022/05/31 10:26:48;;;;;;;11.88;4.75;;;17.80;81.60;;;;;;6219390;23;20187;-82
2022/05/31 10:29:22;;;;;;;7.65;4.00;;;17.60;80.50;;;;;;6218485;23;20091;-82
2022/05/31 10:31:48;;;;;;;6.03;3.83;;;17.50;81.30;;;;;;6217620;23;20016;-82
2022/05/31 10:34:38;;;;;;;6.72;3.10;;;17.40;85.50;;;;;;6220803;23;20068;-82
2022/05/31 10:37:07;;;;;;;5.72;2.45;;;17.30;87.70;;;;;;6244803;23;20016;-82
2022/05/31 10:39:38;;;;;;;3.80;1.92;;;17.30;74.00;;;;;;6246779;23;20008;-82
2022/05/31 10:42:11;;;;;;;3.03;2.10;;;17.30;71.10;;;;;;6219892;23;20023;-82
2022/05/31 10:44:51;;;;;;;4.43;2.60;;;17.30;68.40;;;;;;6217587;23;20016;-82
2022/05/31 10:47:30;;;;;;;3.47;2.65;;;17.20;74.80;;;;;;6245549;22;20040;-82
2022/05/31 10:50:07;;;;;;;3.60;2.95;;;17.30;73.90;;;;;;6221062;23;20181;-82
2022/05/31 10:53:07;;;;;;;4.82;3.17;;;17.30;72.20;;;;;;6220085;23;20008;-81
2022/05/31 10:55:42;;;;;;;4.10;3.45;;;17.30;74.30;;;;;;6219676;23;20337;-82
2022/05/31 10:58:33;;;;;;;8.48;3.67;;;17.20;76.50;;;;;;6220143;23;20023;-82
2022/05/31 11:01:20;;;;;;;8.60;4.03;;;17.20;81.60;;;;;;6221398;23;20070;-82
2022/05/31 11:04:21;;;;;;;6.53;3.45;;;17.20;73.70;;;;;;6219386;23;20511;-82
2022/05/31 11:06:53;;;;;;;6.07;4.07;;;17.40;80.40;;;;;;6220527;23;20019;-82
2022/05/31 11:13:06;;;;;;;8.57;3.50;;;17.50;74.00;;;;;;6220581;23;20436;-83
2022/05/31 11:15:34;;;;;;;5.95;3.90;;;17.60;74.30;;;;;;6196093;23;20016;-82
2022/05/31 11:21:36;;;;;;;7.93;3.65;;;17.50;78.40;;;;;;6231053;23;20345;-82
2022/05/31 11:27:42;;;;;;;7.55;4.28;;;17.50;80.60;;;;;;6236309;22;20429;-83
2022/05/31 11:30:27;;;;;;;7.45;4.85;;;17.40;89.20;;;;;;6230019;23;20087;-82
2022/05/31 11:33:21;;;;;;;7.90;4.28;;;17.50;87.60;;;;;;6224038;23;20412;-82
2022/05/31 11:36:17;;;;;;;7.88;4.63;;;17.50;85.90;;;;;;6224771;23;20074;-82
2022/05/31 11:38:53;;;;;;;7.00;4.15;;;17.60;89.20;;;;;;6258958;22;20019;-82
2022/05/31 11:41:48;;;;;;;12.23;4.53;;;17.60;89.20;;;;;;6242260;23;20012;-81
2022/05/31 11:44:45;;;;;;;6.05;4.65;;;17.70;87.70;;;;;;6244180;23;20027;-81
2022/05/31 11:47:35;;;;;;;6.47;3.85;;;17.70;91.50;;;;;;6249157;23;20016;-82
2022/05/31 11:50:19;;;;;;;7.38;4.70;;;17.60;91.30;;;;;;6247460;23;20016;-82
2022/05/31 11:53:04;;;;;;;7.47;4.00;;;17.60;89.80;;;;;;6224113;23;20024;-82
2022/05/31 11:55:30;;;;;;;6.80;4.63;;;17.50;87.80;;;;;;6251228;23;20013;-82
2022/05/31 11:58:19;;;;;;;6.65;4.10;;;17.40;87.40;;;;;;6222147;23;20091;-82
2022/05/31 12:01:01;;;;;;;7.57;4.43;;;17.40;90.70;;;;;;6224804;23;20051;-83
2022/05/31 12:03:59;;;;;;;9.55;4.20;;;17.30;89.90;;;;;;6223823;23;20485;-82
2022/05/31 12:06:33;;;;;;;6.60;4.03;;;17.40;90.80;;;;;;6226213;23;20020;-82
2022/05/31 12:09:07;;;;;;;6.55;4.10;;;17.30;89.40;;;;;;6220903;23;20016;-83
2022/05/31 12:11:39;;;;;;;9.00;4.35;;;17.30;88.20;;;;;;6225956;23;20020;-82
2022/05/31 12:14:08;;;;;;;7.47;4.13;;;17.30;88.50;;;;;;6221816;23;20043;-82
2022/05/31 12:16:34;;;;;;;7.53;4.35;;;17.30;90.40;;;;;;6249173;23;20639;-82
2022/05/31 12:19:33;;;;;;;9.52;4.05;;;17.30;91.00;;;;;;6223257;23;20047;-82
2022/05/31 12:22:12;;;;;;;8.32;4.20;;;17.30;92.00;;;;;;6250092;23;20016;-82
2022/05/31 12:24:45;;;;;;;10.00;4.30;;;17.30;92.20;;;;;;6225082;23;20486;-82
2022/05/31 12:27:16;;;;;;;6.85;3.72;;;17.30;92.10;;;;;;6223635;23;20062;-84
2022/05/31 12:29:48;;;;;;;7.43;4.28;;;17.40;92.30;;;;;;6247715;23;20020;-81
2022/05/31 12:32:37;;;;;;;9.00;4.45;;;17.40;90.40;;;;;;6247490;23;20052;-82
2022/05/31 12:35:05;;;;;;;6.35;4.28;;;17.40;91.60;;;;;;6219450;23;20023;-82
2022/05/31 12:38:00;;;;;;;6.30;3.90;;;17.40;90.00;;;;;;6247340;23;20012;-82
2022/05/31 12:40:35;;;;;;;8.68;4.10;;;17.40;89.40;;;;;;6222064;23;20031;-82
2022/05/31 12:43:07;;;;;;;7.03;3.83;;;17.50;82.80;;;;;;6248945;22;20023;-81
2022/05/31 12:45:32;;;;;;;5.95;3.40;;;17.60;84.30;;;;;;6249417;23;20020;-82
2022/05/31 12:48:16;;;;;;;5.95;2.75;;;17.60;84.30;;;;;;6197632;23;20085;-81
2022/05/31 12:51:10;;;;;;;6.38;2.63;;;17.70;77.20;;;;;;6197403;23;20442;-83
2022/05/31 12:53:39;;;;;;;4.93;2.55;;;17.70;77.70;;;;;;6206689;23;20040;-82
2022/05/31 12:56:10;;;;;;;5.32;2.90;;;17.60;79.60;;;;;;6199245;23;20020;-82
2022/05/31 12:58:45;;;;;;;9.02;2.95;;;17.60;76.70;;;;;;6199273;23;20023;-82
2022/05/31 13:01:13;;;;;;;5.25;2.83;;;17.60;75.00;;;;;;6224663;23;20047;-82
2022/05/31 13:03:42;;;;;;;6.63;3.15;;;17.70;77.10;;;;;;6251012;23;20449;-82
2022/05/31 13:06:23;;;;;;;5.93;2.97;;;17.70;77.50;;;;;;6224815;23;20032;-82
2022/05/31 13:08:51;;;;;;;6.43;3.00;;;17.70;78.30;;;;;;6223908;23;20020;-82
2022/05/31 13:20:20;;;;;;;3.65;2.58;;;17.60;74.30;;;;;;6243509;23;20036;-82
2022/05/31 13:23:06;;;;;;;5.32;2.78;;;17.60;74.50;;;;;;6217148;23;20376;-82
2022/05/31 13:25:40;;;;;;;6.03;2.80;;;17.60;71.20;;;;;;6192191;23;20400;-82
2022/05/31 13:28:06;;;;;;;4.72;2.60;;;17.50;74.00;;;;;;6191344;23;20016;-82
2022/05/31 13:30:42;;;;;;;5.80;3.05;;;17.50;75.80;;;;;;6191925;23;20016;-82
2022/05/31 13:33:20;;;;;;;6.75;3.10;;;17.50;77.60;;;;;;6192894;23;20020;-82
2022/05/31 13:35:57;;;;;;;6.40;3.00;;;17.60;74.10;;;;;;6191684;23;20016;-82
2022/05/31 13:38:26;;;;;;;6.32;3.13;;;17.60;72.20;;;;;;6217372;23;20547;-82
2022/05/31 13:40:56;;;;;;;5.70;3.40;;;17.70;72.40;;;;;;6217671;23;20510;-82
2022/05/31 13:43:24;;;;;;;4.95;3.00;;;17.80;66.40;;;;;;6216771;23;20019;-82
2022/05/31 13:45:52;;;;;;;5.75;2.80;;;18.00;66.50;;;;;;6191490;23;20016;-82
2022/05/31 13:48:24;;;;;;;4.93;3.03;;;18.10;64.60;;;;;;6216912;23;20095;-82
2022/05/31 13:50:57;;;;;;;5.63;2.90;;;18.10;60.00;;;;;;6191689;23;20016;-81
2022/05/31 13:53:23;;;;;;;5.25;2.97;;;18.20;64.80;;;;;;6194081;23;20024;-81
2022/05/31 13:56:00;;;;;;;4.15;2.78;;;18.30;61.50;;;;;;6217286;23;20047;-82
2022/05/31 13:58:37;;;;;;;5.13;2.50;;;18.60;56.80;;;;;;6192189;23;20087;-81
2022/05/31 14:01:05;;;;;;;6.03;2.40;;;19.00;59.60;;;;;;6217325;23;20055;-81
2022/05/31 14:03:41;;;;;;;6.03;3.00;;;19.60;58.40;;;;;;6217346;23;20016;-82
2022/05/31 14:06:20;;;;;;;6.22;3.03;;;20.10;53.80;;;;;;6191888;23;20019;-81
2022/05/31 14:08:49;;;;;;;4.00;2.00;;;20.50;51.10;;;;;;6193351;23;20016;-81